Time;durP1;ratioP1;P1;durP2;ratioP2;P2;SDS_P1;SDS_P2;PMS_P1;PMS_P2;Temp;Humidity;BMP_temperature;BMP_pressure;BME280_temperature;BME280_humidity;BME280_pressure;Samples;Min_cycle;Max_cycle;Signal;HPM_P1;HPM_P2
2021/01/11 00:02:07;;;;;;;17.13;10.00;;;0.00;99.90;;;;;;5122506;27;20568;-55
2021/01/11 00:04:33;;;;;;;17.23;10.73;;;0.00;99.90;;;;;;5115336;27;20288;-55
2021/01/11 00:06:58;;;;;;;17.93;11.50;;;0.10;99.90;;;;;;5124785;27;20182;-56
2021/01/11 00:09:24;;;;;;;17.27;10.03;;;0.00;99.90;;;;;;5123416;27;20189;-56
2021/01/11 00:11:50;;;;;;;15.40;9.23;;;0.10;99.90;;;;;;5124282;27;20197;-55
2021/01/11 00:14:16;;;;;;;16.83;10.13;;;0.00;99.90;;;;;;5122124;27;20184;-56
2021/01/11 00:16:41;;;;;;;15.97;10.20;;;-0.10;99.90;;;;;;5121661;27;20418;-56
2021/01/11 00:19:07;;;;;;;17.63;10.70;;;0.00;99.90;;;;;;5118845;27;20213;-55
2021/01/11 00:21:33;;;;;;;17.00;11.00;;;0.00;99.90;;;;;;5118509;27;20208;-56
2021/01/11 00:23:59;;;;;;;18.40;11.40;;;0.00;99.90;;;;;;5128359;27;20557;-55
2021/01/11 00:26:24;;;;;;;15.43;9.47;;;1.40;99.90;;;;;;5120537;27;20621;-56
2021/01/11 00:28:50;;;;;;;15.03;9.50;;;-0.10;99.90;;;;;;5119035;27;20181;-55
2021/01/11 00:31:24;;;;;;;16.20;10.40;;;-0.10;99.90;;;;;;5122736;27;20237;-55
2021/01/11 00:33:50;;;;;;;15.80;10.33;;;0.00;99.90;;;;;;5123430;27;20247;-56
2021/01/11 00:36:16;;;;;;;16.07;9.17;;;-0.10;99.90;;;;;;5123804;27;21071;-55
2021/01/11 00:38:42;;;;;;;21.13;11.10;;;-0.10;99.90;;;;;;5125424;27;20519;-56
2021/01/11 00:41:07;;;;;;;18.03;10.83;;;-0.20;99.90;;;;;;5125094;27;20194;-57
2021/01/11 00:43:33;;;;;;;16.37;10.73;;;-0.20;99.90;;;;;;5121182;27;20217;-56
2021/01/11 00:45:59;;;;;;;18.60;10.90;;;;;;;;;;5123167;27;20221;-56
2021/01/11 00:48:25;;;;;;;18.17;11.60;;;-0.20;99.90;;;;;;5116781;27;20273;-56
2021/01/11 00:50:50;;;;;;;15.67;9.80;;;-0.30;99.90;;;;;;5120723;27;20510;-56
2021/01/11 00:53:16;;;;;;;17.33;11.17;;;-0.40;99.90;;;;;;5126026;27;20609;-56
2021/01/11 00:55:41;;;;;;;18.30;10.30;;;-0.40;99.90;;;;;;5122167;27;20182;-56
2021/01/11 00:58:07;;;;;;;19.63;11.60;;;-0.40;99.90;;;;;;5118702;27;20547;-56
2021/01/11 01:00:33;;;;;;;16.40;10.60;;;-0.30;99.90;;;;;;5121215;27;20185;-56
2021/01/11 01:02:58;;;;;;;15.10;9.43;;;-0.40;99.90;;;;;;5116971;27;20174;-55
2021/01/11 01:05:24;;;;;;;14.77;9.87;;;-0.40;99.90;;;;;;5121133;27;20262;-56
2021/01/11 01:07:50;;;;;;;19.03;11.60;;;-0.10;99.90;;;;;;5118861;27;20197;-56
2021/01/11 01:10:15;;;;;;;18.33;10.83;;;-0.30;99.90;;;;;;5115904;27;20175;-56
2021/01/11 01:12:41;;;;;;;18.47;10.03;;;-0.40;99.90;;;;;;5123316;27;20185;-55
2021/01/11 01:15:08;;;;;;;13.97;9.40;;;-0.30;99.90;;;;;;5123798;27;20172;-55
2021/01/11 01:17:35;;;;;;;16.63;10.50;;;-0.40;99.90;;;;;;5121197;27;20519;-56
2021/01/11 01:20:02;;;;;;;14.90;9.80;;;-0.30;99.90;;;;;;5115243;27;20439;-55
2021/01/11 01:22:27;;;;;;;16.30;10.03;;;-0.30;99.90;;;;;;5119949;27;20471;-55
2021/01/11 01:24:53;;;;;;;15.23;9.37;;;-0.30;99.90;;;;;;5128975;27;20574;-55
2021/01/11 01:27:18;;;;;;;16.83;9.20;;;-0.40;99.90;;;;;;5118583;27;20182;-56
2021/01/11 01:29:44;;;;;;;16.50;9.50;;;-0.40;99.90;;;;;;5121815;27;20696;-55
2021/01/11 01:32:10;;;;;;;17.00;9.27;;;-0.30;99.90;;;;;;5119693;27;20199;-55
2021/01/11 01:34:35;;;;;;;15.60;9.53;;;-0.30;99.90;;;;;;5117861;27;20235;-55
2021/01/11 01:37:01;;;;;;;17.17;10.50;;;-0.30;99.90;;;;;;5115749;27;20236;-56
2021/01/11 01:39:26;;;;;;;18.20;11.10;;;-0.30;99.90;;;;;;5120902;27;20186;-56
2021/01/11 01:41:52;;;;;;;16.83;9.10;;;-0.30;99.90;;;;;;5120328;27;20173;-55
2021/01/11 01:44:18;;;;;;;16.17;9.80;;;-0.30;99.90;;;;;;5122382;27;20234;-56
2021/01/11 01:46:44;;;;;;;16.00;10.23;;;-0.20;99.90;;;;;;5119249;27;20177;-56
2021/01/11 01:49:09;;;;;;;19.03;9.80;;;-0.30;99.90;;;;;;5116831;27;20452;-55
2021/01/11 01:51:38;;;;;;;16.80;9.57;;;-0.20;99.90;;;;;;5114899;27;20166;-55
2021/01/11 01:54:04;;;;;;;15.30;9.50;;;-0.30;99.90;;;;;;5125795;27;20178;-55
2021/01/11 01:56:29;;;;;;;14.53;8.50;;;-0.20;99.90;;;;;;5125155;27;20507;-55
2021/01/11 01:58:57;;;;;;;15.97;9.40;;;-0.20;99.90;;;;;;5120389;27;20937;-55
2021/01/11 02:01:23;;;;;;;15.87;9.43;;;-0.20;99.90;;;;;;5121878;27;20382;-56
2021/01/11 02:03:48;;;;;;;16.87;10.73;;;-0.20;99.90;;;;;;5118777;27;20467;-56
2021/01/11 02:06:14;;;;;;;16.30;9.40;;;-0.20;99.90;;;;;;5112256;27;20182;-56
2021/01/11 02:09:06;;;;;;;16.73;10.73;;;-0.10;99.90;;;;;;5127956;27;20174;-55
2021/01/11 02:11:38;;;;;;;14.07;9.13;;;-0.10;99.90;;;;;;5109509;27;20488;-56
2021/01/11 02:14:41;;;;;;;15.07;9.53;;;0.00;99.90;;;;;;5120965;27;20445;-55
2021/01/11 02:17:15;;;;;;;18.20;10.37;;;-0.10;99.90;;;;;;5115643;27;20456;-56
2021/01/11 02:20:02;;;;;;;14.27;9.17;;;-0.10;99.90;;;;;;5117251;27;20474;-55
2021/01/11 02:22:44;;;;;;;13.70;9.00;;;-0.10;99.90;;;;;;5120974;27;20519;-56
2021/01/11 02:25:32;;;;;;;13.07;8.43;;;-0.10;99.90;;;;;;5118651;27;20551;-56
2021/01/11 02:28:00;;;;;;;15.47;9.13;;;-0.20;99.90;;;;;;5115448;27;20432;-56
2021/01/11 02:30:37;;;;;;;16.97;10.00;;;-0.20;99.90;;;;;;5114790;27;20466;-56
2021/01/11 02:33:08;;;;;;;15.53;8.23;;;-0.30;99.90;;;;;;5120891;27;20428;-55
2021/01/11 02:36:04;;;;;;;14.60;9.43;;;-0.30;99.90;;;;;;5118784;27;20443;-55
2021/01/11 02:38:31;;;;;;;14.50;9.17;;;-0.40;99.90;;;;;;5111904;27;20455;-55
2021/01/11 02:40:56;;;;;;;14.73;8.83;;;-0.50;99.90;;;;;;5121011;27;20447;-56
2021/01/11 02:43:23;;;;;;;16.30;9.53;;;-0.50;99.90;;;;;;5114168;27;20455;-56
2021/01/11 02:45:49;;;;;;;16.47;9.90;;;-0.60;99.90;;;;;;5118468;27;20182;-56
2021/01/11 02:48:32;;;;;;;17.00;10.20;;;-0.60;99.90;;;;;;5119367;27;20815;-55
2021/01/11 02:51:01;;;;;;;15.50;9.37;;;-0.50;99.90;;;;;;5118312;27;20177;-55
2021/01/11 02:53:41;;;;;;;15.07;8.80;;;-0.70;99.90;;;;;;5109776;28;20518;-55
2021/01/11 02:56:10;;;;;;;16.90;9.27;;;-0.70;99.90;;;;;;5110672;28;20436;-55
2021/01/11 02:58:59;;;;;;;14.97;9.33;;;-0.70;99.90;;;;;;5119793;27;20465;-55
2021/01/11 03:01:28;;;;;;;16.70;9.70;;;-0.70;99.90;;;;;;5115295;28;20936;-55
2021/01/11 03:03:55;;;;;;;16.80;10.13;;;-0.70;99.90;;;;;;5119618;27;20527;-54
2021/01/11 03:06:29;;;;;;;15.60;8.80;;;-0.70;99.90;;;;;;5120211;27;20436;-55
2021/01/11 03:09:05;;;;;;;13.97;8.73;;;-0.80;99.90;;;;;;5123191;27;20431;-56
2021/01/11 03:11:33;;;;;;;14.27;9.60;;;-0.80;99.90;;;;;;5120819;28;20544;-55
2021/01/11 03:13:59;;;;;;;14.97;8.50;;;-0.80;99.90;;;;;;5120151;28;20837;-57
2021/01/11 03:16:25;;;;;;;12.90;9.23;;;-0.80;99.90;;;;;;5114447;27;20444;-56
2021/01/11 03:18:50;;;;;;;12.07;8.17;;;-0.80;99.90;;;;;;5128234;28;20182;-56
2021/01/11 03:21:16;;;;;;;17.63;10.40;;;;;;;;;;5116966;28;20182;-55
2021/01/11 03:23:42;;;;;;;15.37;9.43;;;-0.90;99.90;;;;;;5110073;28;20240;-55
2021/01/11 03:26:07;;;;;;;14.53;8.90;;;-0.80;99.90;;;;;;5108842;28;20968;-55
2021/01/11 03:28:33;;;;;;;15.70;9.30;;;-0.80;99.90;;;;;;5108827;28;20188;-56
2021/01/11 03:30:58;;;;;;;15.33;8.90;;;-0.80;99.90;;;;;;5111348;28;20698;-56
2021/01/11 03:33:24;;;;;;;14.10;8.73;;;-0.80;99.90;;;;;;5126374;28;20182;-55
2021/01/11 03:35:50;;;;;;;15.47;8.20;;;-0.80;99.90;;;;;;5116647;28;20746;-55
2021/01/11 03:38:15;;;;;;;14.50;8.63;;;-0.90;99.90;;;;;;5121474;28;20257;-55
2021/01/11 03:40:41;;;;;;;12.77;7.93;;;-0.80;99.90;;;;;;5116359;28;20174;-54
2021/01/11 03:43:06;;;;;;;11.90;8.23;;;-0.90;99.90;;;;;;5127772;28;20512;-55
2021/01/11 03:45:32;;;;;;;16.17;8.40;;;-0.90;99.90;;;;;;5119498;28;20182;-55
2021/01/11 03:47:57;;;;;;;13.23;8.60;;;-0.90;99.90;;;;;;5121940;28;20704;-55
2021/01/11 03:50:23;;;;;;;13.70;8.60;;;-0.90;99.90;;;;;;5121250;28;20190;-55
2021/01/11 03:52:49;;;;;;;17.17;10.00;;;-0.90;99.90;;;;;;5124526;28;20238;-56
2021/01/11 03:55:14;;;;;;;16.40;10.90;;;-0.90;99.90;;;;;;5112149;28;20193;-56
2021/01/11 03:57:40;;;;;;;17.43;11.50;;;-0.90;99.90;;;;;;5123250;27;20311;-55
2021/01/11 04:00:06;;;;;;;13.40;8.50;;;-1.00;99.90;;;;;;5114924;28;20192;-55
2021/01/11 04:02:33;;;;;;;15.70;10.53;;;-0.90;99.90;;;;;;5118058;28;20189;-55
2021/01/11 04:04:59;;;;;;;14.77;9.50;;;-1.10;99.90;;;;;;5119867;28;20462;-55
2021/01/11 04:07:24;;;;;;;16.90;8.63;;;-0.90;99.90;;;;;;5123430;27;20432;-56
2021/01/11 04:09:50;;;;;;;18.53;9.40;;;-1.00;99.90;;;;;;5123711;27;20166;-55
2021/01/11 04:12:16;;;;;;;15.10;8.83;;;-0.90;99.90;;;;;;5123928;27;20266;-56
2021/01/11 04:14:41;;;;;;;16.40;9.73;;;-0.90;99.90;;;;;;5117421;27;20186;-55
2021/01/11 04:17:07;;;;;;;19.33;9.90;;;-1.00;99.90;;;;;;5113584;27;20181;-55
2021/01/11 04:19:33;;;;;;;14.83;9.43;;;-1.00;99.90;;;;;;5118033;27;20225;-55
2021/01/11 04:21:58;;;;;;;18.57;9.60;;;-0.90;99.90;;;;;;5124777;27;20468;-55
2021/01/11 04:24:24;;;;;;;15.50;9.80;;;-0.90;99.90;;;;;;5122633;27;20202;-54
2021/01/11 04:26:50;;;;;;;18.37;9.13;;;-0.90;99.90;;;;;;5114069;27;20181;-56
2021/01/11 04:29:15;;;;;;;18.57;10.67;;;-0.60;99.90;;;;;;5128707;27;20181;-55
2021/01/11 04:31:41;;;;;;;15.43;8.90;;;-1.00;99.90;;;;;;5122010;27;20221;-56
2021/01/11 04:34:06;;;;;;;17.50;9.67;;;-1.10;99.90;;;;;;5125971;27;20210;-55
2021/01/11 04:36:35;;;;;;;15.83;9.30;;;-1.00;99.90;;;;;;5118949;27;20397;-55
2021/01/11 04:39:02;;;;;;;17.43;9.23;;;-0.90;99.90;;;;;;5127560;27;20264;-55
2021/01/11 04:41:34;;;;;;;16.00;10.63;;;-1.00;99.90;;;;;;5119355;27;20514;-56
2021/01/11 04:44:04;;;;;;;19.10;11.07;;;-1.00;99.90;;;;;;5115617;27;20463;-55
2021/01/11 04:46:30;;;;;;;18.47;10.77;;;-1.00;99.90;;;;;;5118264;27;20454;-56
2021/01/11 04:48:57;;;;;;;18.90;9.97;;;-1.00;99.90;;;;;;5122902;27;20939;-56
2021/01/11 04:51:22;;;;;;;13.60;8.50;;;-1.20;99.90;;;;;;5114290;27;20722;-56
2021/01/11 04:53:50;;;;;;;19.77;9.70;;;-1.10;99.90;;;;;;5124017;27;20526;-56
2021/01/11 04:56:18;;;;;;;14.97;10.07;;;-1.20;99.90;;;;;;5115162;27;20217;-55
2021/01/11 04:58:54;;;;;;;18.60;9.97;;;-1.10;99.90;;;;;;5113006;27;20956;-56
2021/01/11 05:01:26;;;;;;;13.77;9.43;;;-1.10;99.90;;;;;;5113711;27;20428;-55
2021/01/11 05:03:52;;;;;;;18.27;9.60;;;;;;;;;;5113771;27;20956;-54
2021/01/11 05:06:19;;;;;;;13.90;9.20;;;-1.10;99.90;;;;;;5123010;27;20529;-56
2021/01/11 05:08:45;;;;;;;14.87;9.57;;;-1.10;99.90;;;;;;5132969;27;20481;-56
2021/01/11 05:11:12;;;;;;;17.77;10.17;;;-1.00;99.90;;;;;;5127284;27;20435;-56
2021/01/11 05:13:38;;;;;;;15.80;9.83;;;-1.10;99.90;;;;;;5115137;27;20943;-56
2021/01/11 05:16:14;;;;;;;16.83;10.20;;;-1.20;99.90;;;;;;5112309;28;20431;-56
2021/01/11 05:18:40;;;;;;;15.90;10.53;;;-1.10;99.90;;;;;;5111779;28;20749;-57
2021/01/11 05:21:07;;;;;;;16.97;11.03;;;-1.10;99.90;;;;;;5111930;28;20439;-55
2021/01/11 05:23:39;;;;;;;18.10;10.30;;;-1.10;99.90;;;;;;5111578;28;20959;-56
2021/01/11 05:26:13;;;;;;;17.00;9.67;;;-1.10;99.90;;;;;;5111564;28;20523;-55
2021/01/11 05:28:39;;;;;;;18.80;9.83;;;-1.10;99.90;;;;;;5117263;27;20432;-54
2021/01/11 05:31:05;;;;;;;16.50;9.37;;;-1.10;99.90;;;;;;5117394;27;20490;-56
2021/01/11 05:33:31;;;;;;;15.50;10.07;;;-1.00;99.90;;;;;;5124011;27;20547;-55
2021/01/11 05:36:06;;;;;;;16.37;10.00;;;-1.10;99.90;;;;;;5118636;27;20219;-55
2021/01/11 05:38:39;;;;;;;19.13;10.37;;;-1.20;99.90;;;;;;5122529;27;20169;-54
2021/01/11 05:41:13;;;;;;;20.00;10.43;;;-1.10;99.90;;;;;;5119867;27;20897;-55
2021/01/11 05:43:39;;;;;;;18.40;9.37;;;-1.20;99.90;;;;;;5118560;27;20469;-55
2021/01/11 05:46:26;;;;;;;15.23;9.80;;;-1.20;99.90;;;;;;5125325;27;20789;-55
2021/01/11 05:49:08;;;;;;;15.30;9.20;;;-1.20;99.90;;;;;;5120316;27;20837;-55
2021/01/11 05:51:35;;;;;;;24.70;10.03;;;-1.10;99.90;;;;;;5127626;27;20455;-56
2021/01/11 05:54:02;;;;;;;15.97;9.27;;;-1.10;99.90;;;;;;5123623;27;20432;-56
2021/01/11 05:56:48;;;;;;;17.80;9.60;;;-1.10;99.90;;;;;;5116212;27;20494;-55
2021/01/11 05:59:13;;;;;;;15.43;9.33;;;-1.20;99.90;;;;;;5117013;27;20454;-55
2021/01/11 06:01:39;;;;;;;16.43;9.87;;;-1.20;99.90;;;;;;5116684;27;20919;-55
2021/01/11 06:04:05;;;;;;;17.20;10.53;;;-1.20;99.90;;;;;;5112925;27;20251;-55
2021/01/11 06:06:30;;;;;;;17.47;10.47;;;-1.20;99.90;;;;;;5116538;27;20197;-56
2021/01/11 06:08:56;;;;;;;20.30;10.73;;;-1.20;99.90;;;;;;5116145;27;20467;-56
2021/01/11 06:11:26;;;;;;;16.80;10.07;;;-1.20;99.90;;;;;;5112798;28;20174;-55
2021/01/11 06:13:53;;;;;;;20.37;10.30;;;-1.20;99.90;;;;;;5112761;28;20182;-55
2021/01/11 06:16:24;;;;;;;19.20;10.90;;;-1.20;99.90;;;;;;5118094;27;20944;-56
2021/01/11 06:18:51;;;;;;;15.53;9.40;;;-1.20;99.90;;;;;;5133256;27;20492;-56
2021/01/11 06:21:18;;;;;;;15.33;9.70;;;-1.20;99.90;;;;;;5116005;27;20527;-55
2021/01/11 06:23:44;;;;;;;16.33;10.00;;;-1.20;99.90;;;;;;5111384;28;20466;-55
2021/01/11 06:26:25;;;;;;;20.57;11.00;;;-1.20;99.90;;;;;;5126707;27;20439;-56
2021/01/11 06:28:51;;;;;;;16.57;8.57;;;-1.30;99.90;;;;;;5104213;27;20950;-55
2021/01/11 06:31:18;;;;;;;16.60;10.53;;;-1.30;99.90;;;;;;5111881;28;20983;-55
2021/01/11 06:33:44;;;;;;;17.20;9.43;;;-1.20;99.90;;;;;;5120418;27;20587;-55
2021/01/11 06:36:29;;;;;;;15.93;10.20;;;-1.20;99.90;;;;;;5118261;27;20444;-55
2021/01/11 06:38:55;;;;;;;15.43;9.53;;;-1.20;99.90;;;;;;5113126;27;20431;-56
2021/01/11 06:41:27;;;;;;;18.87;10.80;;;-1.20;99.90;;;;;;5129209;27;20443;-54
2021/01/11 06:44:01;;;;;;;18.20;9.77;;;-1.20;99.90;;;;;;5124442;27;20968;-57
2021/01/11 06:46:30;;;;;;;17.67;10.47;;;-1.30;99.90;;;;;;5110878;28;20484;-58
2021/01/11 06:49:08;;;;;;;17.00;11.13;;;-1.20;99.90;;;;;;5110567;28;20420;-56
2021/01/11 06:51:43;;;;;;;17.53;10.30;;;-1.30;99.90;;;;;;5110001;28;20439;-56
2021/01/11 06:54:13;;;;;;;15.70;9.80;;;-1.20;99.90;;;;;;5110289;28;20459;-58
2021/01/11 06:56:42;;;;;;;13.23;8.93;;;-1.20;99.90;;;;;;5109278;28;20435;-57
2021/01/11 06:59:12;;;;;;;15.50;9.30;;;-1.30;99.90;;;;;;5110193;28;20450;-56
2021/01/11 07:01:41;;;;;;;21.43;10.77;;;-1.30;99.90;;;;;;5106345;28;20974;-56
2021/01/11 07:04:08;;;;;;;18.60;11.17;;;-1.30;99.90;;;;;;5110761;28;20459;-56
2021/01/11 07:06:44;;;;;;;17.53;10.20;;;-1.40;99.90;;;;;;5110569;28;20436;-56
2021/01/11 07:09:12;;;;;;;14.07;9.60;;;-1.30;99.90;;;;;;5110270;28;20523;-57
2021/01/11 07:11:43;;;;;;;19.27;10.20;;;-1.30;99.90;;;;;;5124428;28;20431;-56
2021/01/11 07:14:13;;;;;;;17.83;9.93;;;-1.30;99.90;;;;;;5107990;28;20520;-57
2021/01/11 07:16:44;;;;;;;18.57;10.43;;;-1.30;99.90;;;;;;5142607;27;20443;-57
2021/01/11 07:19:18;;;;;;;16.90;9.87;;;-1.30;99.90;;;;;;5110577;28;20873;-57
2021/01/11 07:21:47;;;;;;;19.73;10.27;;;-1.20;99.90;;;;;;5110089;28;20435;-56
2021/01/11 07:24:13;;;;;;;16.23;10.33;;;-1.20;99.90;;;;;;5109748;28;20456;-56
2021/01/11 07:26:39;;;;;;;19.20;10.53;;;-1.30;99.90;;;;;;5109935;28;20587;-58
2021/01/11 07:29:07;;;;;;;18.80;9.67;;;-1.20;99.90;;;;;;5110533;28;20519;-57
2021/01/11 07:31:41;;;;;;;18.07;11.10;;;-1.20;99.10;;;;;;5108175;28;20547;-56
2021/01/11 07:34:13;;;;;;;16.80;8.97;;;-1.10;93.50;;;;;;5107818;28;20440;-56
2021/01/11 07:36:41;;;;;;;15.47;9.03;;;-1.20;92.70;;;;;;5110190;28;20442;-58
2021/01/11 07:39:15;;;;;;;14.03;10.30;;;-1.20;94.80;;;;;;5108884;28;20835;-57
2021/01/11 07:41:48;;;;;;;13.27;9.33;;;-1.20;98.60;;;;;;5111776;28;20427;-57
2021/01/11 07:44:15;;;;;;;16.80;9.40;;;-1.10;99.00;;;;;;5115107;27;20464;-56
2021/01/11 07:46:42;;;;;;;16.70;9.40;;;-1.10;98.00;;;;;;5127215;27;20438;-56
2021/01/11 07:49:15;;;;;;;18.20;10.70;;;-1.10;96.30;;;;;;5114483;28;20486;-57
2021/01/11 07:51:43;;;;;;;17.23;10.40;;;-1.10;97.10;;;;;;5114071;28;20428;-56
2021/01/11 07:54:10;;;;;;;16.87;9.90;;;-1.10;99.90;;;;;;5112733;28;20439;-56
2021/01/11 07:56:36;;;;;;;18.00;10.47;;;-1.10;99.90;;;;;;5113740;28;20515;-59
2021/01/11 07:59:06;;;;;;;17.60;9.80;;;-1.10;99.90;;;;;;5113921;28;20490;-57
2021/01/11 08:01:37;;;;;;;14.60;9.97;;;-0.90;97.20;;;;;;5113397;28;20475;-57
2021/01/11 08:04:03;;;;;;;17.73;9.57;;;-0.80;94.10;;;;;;5119186;27;20502;-59
2021/01/11 08:06:31;;;;;;;16.07;10.87;;;-0.70;80.10;;;;;;5133151;27;20443;-56
2021/01/11 08:08:58;;;;;;;13.47;9.83;;;-0.70;75.40;;;;;;5114182;28;20443;-57
2021/01/11 08:11:25;;;;;;;14.07;8.47;;;-0.60;59.40;;;;;;5113896;28;20496;-59
2021/01/11 08:13:50;;;;;;;17.60;9.73;;;-0.50;51.20;;;;;;5113840;28;20443;-57
2021/01/11 08:16:17;;;;;;;15.43;9.40;;;-0.50;46.20;;;;;;5113939;28;20920;-57
2021/01/11 08:18:43;;;;;;;17.07;9.90;;;-0.50;43.70;;;;;;5113626;28;20185;-58
2021/01/11 08:21:10;;;;;;;15.40;9.60;;;-0.30;29.90;;;;;;5114085;27;20988;-57
2021/01/11 08:23:37;;;;;;;15.00;8.97;;;-0.30;29.80;;;;;;5112690;27;20463;-57
2021/01/11 08:26:07;;;;;;;13.27;8.20;;;-0.30;29.20;;;;;;5124158;27;20518;-58
2021/01/11 08:28:34;;;;;;;16.70;9.20;;;-0.20;28.10;;;;;;5134284;27;20482;-56
2021/01/11 08:31:03;;;;;;;16.87;10.00;;;-0.10;27.60;;;;;;5120873;27;20999;-57
2021/01/11 08:33:31;;;;;;;16.57;9.73;;;-0.20;27.70;;;;;;5112804;28;20963;-58
2021/01/11 08:36:17;;;;;;;20.93;8.93;;;-0.10;28.40;;;;;;5113642;28;20432;-58
2021/01/11 08:39:05;;;;;;;19.23;9.97;;;0.00;25.10;;;;;;5113688;28;20439;-58
2021/01/11 08:41:33;;;;;;;14.80;8.77;;;0.10;14.00;;;;;;5113127;27;20464;-58
2021/01/11 08:43:58;;;;;;;15.50;9.13;;;0.10;11.60;;;;;;5109973;28;20456;-58
2021/01/11 08:46:24;;;;;;;12.17;8.73;;;0.10;13.40;;;;;;5113542;28;20454;-58
2021/01/11 08:49:04;;;;;;;16.33;9.97;;;0.10;16.60;;;;;;5112190;28;20174;-59
2021/01/11 08:51:29;;;;;;;17.97;10.47;;;0.20;17.90;;;;;;5112972;28;20424;-58
2021/01/11 08:53:55;;;;;;;18.73;12.40;;;0.30;16.80;;;;;;5118532;27;20440;-57
2021/01/11 08:56:28;;;;;;;13.43;10.60;;;0.40;18.70;;;;;;5133424;27;20275;-57
2021/01/11 08:58:54;;;;;;;13.83;10.10;;;0.50;16.20;;;;;;5123825;27;20193;-59
2021/01/11 09:01:25;;;;;;;17.63;10.30;;;0.60;11.70;;;;;;5114022;28;20450;-58
2021/01/11 09:03:54;;;;;;;16.13;8.77;;;0.70;6.70;;;;;;5129480;27;20487;-58
2021/01/11 09:06:46;;;;;;;16.40;10.43;;;0.70;7.10;;;;;;5133591;27;20526;-58
2021/01/11 09:09:14;;;;;;;14.13;9.60;;;0.80;3.70;;;;;;5124033;27;20423;-58
2021/01/11 09:11:41;;;;;;;14.47;10.03;;;1.00;1.00;;;;;;5132216;27;20428;-58
2021/01/11 09:14:09;;;;;;;15.93;8.93;;;1.10;1.00;;;;;;5121651;27;20431;-58
2021/01/11 09:16:34;;;;;;;14.70;8.80;;;1.10;1.00;;;;;;5112729;28;20478;-58
2021/01/11 09:19:11;;;;;;;13.47;8.80;;;1.10;1.00;;;;;;5111489;28;20483;-59
2021/01/11 09:21:42;;;;;;;12.70;9.43;;;1.20;1.00;;;;;;5112829;28;20425;-58
2021/01/11 09:24:09;;;;;;;15.00;7.93;;;1.30;1.00;;;;;;5112610;28;20467;-57
2021/01/11 09:26:38;;;;;;;11.47;7.93;;;1.40;1.00;;;;;;5112659;27;20766;-60
2021/01/11 09:29:04;;;;;;;13.03;7.47;;;1.50;1.00;;;;;;5112722;28;20629;-57
2021/01/11 09:31:30;;;;;;;12.83;7.37;;;1.80;1.00;;;;;;5111021;28;20464;-58
2021/01/11 09:33:55;;;;;;;12.70;7.60;;;1.80;1.00;;;;;;5112342;28;20797;-57
2021/01/11 09:36:21;;;;;;;8.80;6.50;;;2.20;1.00;;;;;;5112411;28;20231;-58
2021/01/11 09:38:50;;;;;;;5.30;4.80;;;2.40;1.00;;;;;;5111267;28;20179;-57
2021/01/11 09:41:17;;;;;;;5.17;4.60;;;2.60;1.00;;;;;;5111726;28;20493;-58
2021/01/11 09:43:43;;;;;;;7.60;5.90;;;2.80;1.00;;;;;;5112429;28;20463;-56
2021/01/11 09:46:10;;;;;;;5.73;4.20;;;3.00;1.00;;;;;;5110666;28;20432;-57
2021/01/11 09:48:36;;;;;;;8.70;4.70;;;3.20;1.00;;;;;;5112079;28;20560;-57
2021/01/11 09:51:02;;;;;;;8.70;4.93;;;3.30;1.00;;;;;;5112166;28;20444;-57
2021/01/11 09:53:28;;;;;;;5.93;4.90;;;3.70;1.00;;;;;;5111950;28;20664;-57
2021/01/11 09:55:54;;;;;;;7.17;6.00;;;3.90;1.00;;;;;;5112074;28;20526;-58
2021/01/11 09:58:20;;;;;;;4.70;3.40;;;4.20;1.00;;;;;;5111500;27;20181;-57
2021/01/11 10:00:45;;;;;;;5.90;5.03;;;3.90;1.00;;;;;;5111854;28;20262;-57
2021/01/11 10:03:11;;;;;;;6.03;4.53;;;3.90;1.00;;;;;;5111339;28;20185;-57
2021/01/11 10:05:37;;;;;;;7.00;4.57;;;4.10;1.00;;;;;;5111707;28;20206;-57
2021/01/11 10:08:03;;;;;;;7.50;5.20;;;4.20;1.00;;;;;;5111783;28;20625;-57
2021/01/11 10:10:29;;;;;;;5.33;4.77;;;4.80;1.00;;;;;;5111552;28;20177;-58
2021/01/11 10:12:54;;;;;;;9.17;5.97;;;5.80;1.00;;;;;;5110441;28;20186;-58
2021/01/11 10:15:20;;;;;;;5.77;4.80;;;6.40;1.00;;;;;;5111642;28;20184;-57
2021/01/11 10:17:46;;;;;;;6.20;4.37;;;6.50;1.00;;;;;;5111369;28;20816;-59
2021/01/11 10:20:12;;;;;;;6.73;4.80;;;6.40;1.00;;;;;;5111352;28;20196;-58
2021/01/11 10:22:38;;;;;;;4.90;4.50;;;5.80;1.00;;;;;;5110811;28;20269;-57
2021/01/11 10:25:05;;;;;;;6.90;5.20;;;5.30;1.00;;;;;;5111373;28;21006;-58
2021/01/11 10:27:31;;;;;;;7.73;5.83;;;4.90;1.00;;;;;;5109250;28;20537;-58
2021/01/11 10:29:57;;;;;;;7.33;5.60;;;5.10;1.00;;;;;;5110875;28;20890;-57
2021/01/11 10:32:23;;;;;;;6.10;5.50;;;5.10;1.00;;;;;;5111196;28;20504;-58
2021/01/11 10:34:48;;;;;;;7.20;5.10;;;5.20;1.00;;;;;;5111391;28;20272;-57
2021/01/11 10:37:14;;;;;;;6.83;4.50;;;5.10;1.00;;;;;;5111426;28;20532;-57
2021/01/11 10:39:39;;;;;;;7.63;4.03;;;5.10;1.00;;;;;;5111609;28;20186;-58
2021/01/11 10:42:05;;;;;;;7.30;4.90;;;4.90;1.00;;;;;;5126926;27;20226;-57
2021/01/11 10:44:31;;;;;;;8.63;5.67;;;5.00;1.00;;;;;;5119198;27;20207;-58
2021/01/11 10:46:59;;;;;;;6.07;4.13;;;5.20;1.00;;;;;;5131347;27;20355;-58
2021/01/11 10:49:25;;;;;;;11.70;5.30;;;5.30;1.00;;;;;;5121939;27;20186;-58
2021/01/11 10:51:51;;;;;;;6.80;4.80;;;5.50;1.00;;;;;;5114738;27;20435;-58
2021/01/11 10:54:17;;;;;;;5.37;4.60;;;5.30;1.00;;;;;;5131722;27;20439;-57
2021/01/11 10:56:43;;;;;;;8.47;5.27;;;5.30;1.00;;;;;;5113765;27;20903;-60
2021/01/11 10:59:10;;;;;;;8.00;5.67;;;5.30;1.00;;;;;;5109680;28;20211;-58
2021/01/11 11:01:36;;;;;;;8.93;5.10;;;5.20;1.00;;;;;;5110978;28;20925;-58
2021/01/11 11:04:03;;;;;;;6.37;5.20;;;5.20;1.00;;;;;;5110445;28;20794;-58
2021/01/11 11:06:29;;;;;;;5.60;4.50;;;5.20;1.00;;;;;;5109612;28;20921;-58
2021/01/11 11:08:55;;;;;;;6.20;4.30;;;5.40;1.00;;;;;;5109461;28;20439;-59
2021/01/11 11:11:21;;;;;;;5.10;4.60;;;5.70;1.00;;;;;;5111348;28;20180;-57
2021/01/11 11:13:47;;;;;;;5.67;4.73;;;5.70;1.00;;;;;;5110627;27;20178;-57
2021/01/11 11:16:14;;;;;;;5.40;4.37;;;5.60;1.00;;;;;;5111456;28;20447;-58
2021/01/11 11:18:41;;;;;;;5.77;4.30;;;5.50;1.00;;;;;;5114855;28;20518;-58
2021/01/11 11:21:10;;;;;;;6.97;4.00;;;5.60;1.00;;;;;;5114558;28;20436;-57
2021/01/11 11:23:36;;;;;;;3.97;3.67;;;5.60;1.00;;;;;;5113171;28;20443;-58
2021/01/11 11:26:03;;;;;;;4.27;3.87;;;5.50;1.00;;;;;;5114524;28;20435;-58
2021/01/11 11:28:30;;;;;;;5.67;4.43;;;5.70;1.00;;;;;;5114054;28;21092;-57
2021/01/11 11:30:56;;;;;;;4.70;4.20;;;5.80;1.00;;;;;;5114254;28;20790;-59
2021/01/11 11:33:22;;;;;;;4.63;3.40;;;5.80;1.00;;;;;;5115226;28;20491;-58
2021/01/11 11:35:47;;;;;;;5.50;4.53;;;5.80;1.00;;;;;;5114768;28;20234;-58
2021/01/11 11:38:13;;;;;;;6.40;4.47;;;5.80;1.00;;;;;;5114816;28;20424;-58
2021/01/11 11:40:40;;;;;;;5.30;4.53;;;5.80;1.00;;;;;;5113961;28;20178;-57
2021/01/11 11:43:05;;;;;;;11.50;6.23;;;5.60;1.00;;;;;;5127922;27;20171;-57
2021/01/11 11:45:32;;;;;;;5.83;4.13;;;5.60;1.00;;;;;;5134979;27;20519;-57
2021/01/11 11:47:57;;;;;;;4.93;4.30;;;5.70;1.00;;;;;;5135127;27;20524;-57
2021/01/11 11:50:23;;;;;;;5.03;3.83;;;5.70;1.00;;;;;;5135010;27;20482;-57
2021/01/11 11:52:49;;;;;;;6.73;4.47;;;5.50;1.00;;;;;;5133734;27;20262;-57
2021/01/11 11:55:15;;;;;;;5.33;4.40;;;5.30;1.00;;;;;;5134706;27;20449;-57
2021/01/11 11:57:44;;;;;;;4.70;3.90;;;5.40;1.00;;;;;;5122990;27;20185;-57
2021/01/11 12:00:13;;;;;;;5.47;3.70;;;5.40;1.00;;;;;;5113965;27;20991;-59
2021/01/11 12:02:42;;;;;;;4.87;4.37;;;5.50;1.00;;;;;;5114080;28;20445;-58
2021/01/11 12:05:10;;;;;;;6.33;5.00;;;5.60;1.00;;;;;;5114111;28;20471;-57
2021/01/11 12:07:36;;;;;;;7.20;5.30;;;5.50;1.00;;;;;;5114413;28;20522;-58
2021/01/11 12:10:06;;;;;;;5.73;4.10;;;5.40;1.00;;;;;;5112596;28;20517;-60
2021/01/11 12:12:32;;;;;;;4.73;4.23;;;5.50;1.00;;;;;;5114083;28;20702;-58
2021/01/11 12:14:59;;;;;;;4.70;3.93;;;5.40;1.00;;;;;;5114389;28;20532;-59
2021/01/11 12:17:25;;;;;;;5.37;4.27;;;5.50;1.00;;;;;;5125655;27;20670;-57
2021/01/11 12:19:51;;;;;;;5.57;4.47;;;5.40;1.00;;;;;;5134576;27;20984;-58
2021/01/11 12:22:17;;;;;;;5.33;4.13;;;5.40;1.00;;;;;;5133277;27;20439;-58
2021/01/11 12:24:42;;;;;;;4.00;3.60;;;5.20;1.00;;;;;;5134384;27;20197;-57
2021/01/11 12:27:08;;;;;;;6.20;4.93;;;5.20;1.00;;;;;;5118936;27;20182;-58
2021/01/11 12:29:34;;;;;;;4.20;3.70;;;5.10;1.00;;;;;;5113833;28;20182;-57
2021/01/11 12:32:04;;;;;;;5.63;4.00;;;5.10;1.00;;;;;;5113148;28;20223;-57
2021/01/11 12:34:33;;;;;;;9.23;4.43;;;5.10;1.00;;;;;;5113268;27;20435;-58
2021/01/11 12:37:00;;;;;;;5.70;3.93;;;5.00;1.00;;;;;;5112272;28;20474;-58
2021/01/11 12:39:25;;;;;;;5.77;5.17;;;5.10;1.00;;;;;;5113258;28;20436;-58
2021/01/11 12:45:17;;;;;;;4.57;4.00;;;5.20;1.00;;;;;;4919165;28;20216;-57
2021/01/11 12:47:43;;;;;;;5.07;4.00;;;5.20;1.00;;;;;;5097057;27;20466;-58
2021/01/11 12:50:08;;;;;;;5.77;3.90;;;5.10;1.00;;;;;;5113220;28;20669;-57
2021/01/11 12:52:34;;;;;;;4.40;3.87;;;7.20;1.00;;;;;;5112632;28;20189;-57